createdAt,value
2022-08-17T00:00:43.295Z,100707.38
2022-08-17T00:03:35.886Z,100710.84
2022-08-17T00:06:25.221Z,100709.16
2022-08-17T00:09:10.508Z,100702.22
2022-08-17T00:12:51.380Z,100695.88
2022-08-17T00:15:12.066Z,100694.56
2022-08-17T00:17:57.132Z,100678.75
2022-08-17T00:20:42.414Z,100689.91
2022-08-17T00:23:28.169Z,100696.38
2022-08-17T00:26:14.414Z,100687.53
2022-08-17T00:29:00.502Z,100699.34
2022-08-17T00:31:45.600Z,100703.34
2022-08-17T00:34:30.864Z,100686.56
2022-08-17T00:37:16.959Z,100701.84
2022-08-17T00:40:02.238Z,100699.50
2022-08-17T00:42:49.559Z,100677.72
2022-08-17T00:45:34.818Z,100681.25
2022-08-17T00:48:29.017Z,100676.06
2022-08-17T00:51:25.903Z,100674.91
2022-08-17T00:54:10.846Z,100670.25
2022-08-17T00:57:04.826Z,100651.25
2022-08-17T01:00:01.813Z,100668.75
2022-08-17T01:02:48.967Z,100658.78
2022-08-17T01:05:38.351Z,100661.59
2022-08-17T01:08:31.083Z,100651.91
2022-08-17T01:11:17.179Z,100653.91
2022-08-17T01:14:03.150Z,100649.56
2022-08-17T01:16:50.602Z,100651.06
2022-08-17T01:19:40.074Z,100651.84
2022-08-17T01:22:25.578Z,100637.22
2022-08-17T01:25:12.545Z,100650.63
2022-08-17T01:27:57.602Z,100652.94
2022-08-17T01:30:57.437Z,100660.53
2022-08-17T01:33:44.495Z,100640.09
2022-08-17T01:36:30.436Z,100646.91
2022-08-17T01:39:30.693Z,100658.16
2022-08-17T01:42:24.840Z,100658.63
2022-08-17T01:45:20.724Z,100644.03
2022-08-17T01:48:05.852Z,100639.09
2022-08-17T01:50:51.960Z,100646.50
2022-08-17T01:53:40.646Z,100639.41
2022-08-17T01:56:27.905Z,100647.00
2022-08-17T01:59:13.570Z,100639.00
2022-08-17T02:02:00.777Z,100644.66
2022-08-17T02:04:45.943Z,100628.91
2022-08-17T02:07:30.855Z,100641.69
2022-08-17T02:10:20.099Z,100643.66
2022-08-17T02:13:05.865Z,100652.13
2022-08-17T02:15:51.125Z,100648.34
2022-08-17T02:18:36.469Z,100644.34
2022-08-17T02:21:21.594Z,100651.94
2022-08-17T02:24:10.836Z,100658.84
2022-08-17T02:26:56.068Z,100654.19
2022-08-17T02:29:41.050Z,100660.31
2022-08-17T02:32:28.256Z,100656.16
2022-08-17T02:35:14.471Z,100659.13
2022-08-17T02:38:06.297Z,100655.47
2022-08-17T02:40:51.825Z,100656.09
2022-08-17T02:43:37.094Z,100663.50
2022-08-17T02:46:22.640Z,100650.78
2022-08-17T02:49:07.618Z,100652.53
2022-08-17T02:51:52.575Z,100664.44
2022-08-17T02:54:39.854Z,100656.06
2022-08-17T02:57:27.044Z,100684.06
2022-08-17T03:00:17.638Z,100687.28
2022-08-17T03:03:05.553Z,100667.59
2022-08-17T03:05:53.991Z,100684.34
2022-08-17T03:08:39.113Z,100681.16
2022-08-17T03:11:24.386Z,100677.97
2022-08-17T03:14:09.659Z,100683.88
2022-08-17T03:16:54.878Z,100688.78
2022-08-17T03:19:42.902Z,100693.09
2022-08-17T03:22:36.842Z,100695.59
2022-08-17T03:25:27.457Z,100688.47
2022-08-17T03:28:13.758Z,100696.28
2022-08-17T03:30:59.046Z,100689.75
2022-08-17T03:33:44.646Z,100690.31
2022-08-17T03:36:29.791Z,100691.97
2022-08-17T03:39:20.938Z,100686.75
2022-08-17T03:42:32.564Z,100692.28
2022-08-17T03:45:42.714Z,100694.94
2022-08-17T03:48:47.186Z,100698.56
2022-08-17T03:51:50.925Z,100697.44
2022-08-17T03:54:55.122Z,100701.59
2022-08-17T03:57:40.545Z,100693.88
2022-08-17T04:00:27.686Z,100703.63
2022-08-17T04:03:13.859Z,100696.94
2022-08-17T04:06:00.299Z,100698.69
2022-08-17T04:08:45.687Z,100695.41
2022-08-17T04:11:30.934Z,100681.22
2022-08-17T04:14:16.278Z,100701.84
2022-08-17T04:17:01.519Z,100691.09
2022-08-17T04:19:46.979Z,100691.66
2022-08-17T04:22:34.328Z,100695.41
2022-08-17T04:25:19.451Z,100684.44
2022-08-17T04:28:15.521Z,100696.25
2022-08-17T04:31:01.518Z,100693.34
2022-08-17T04:33:46.945Z,100679.69
2022-08-17T04:36:32.233Z,100682.50
2022-08-17T04:39:17.485Z,100674.84
2022-08-17T04:42:16.938Z,100670.28
2022-08-17T04:45:04.475Z,100670.72
2022-08-17T04:47:49.605Z,100677.97
2022-08-17T04:50:36.274Z,100672.69
2022-08-17T04:53:21.737Z,100672.97
2022-08-17T04:56:07.902Z,100671.44
2022-08-17T04:59:00.865Z,100661.50
2022-08-17T05:01:50.913Z,100688.03
2022-08-17T05:04:36.118Z,100686.94
2022-08-17T05:07:24.605Z,100679.56
2022-08-17T05:10:11.293Z,100663.56
2022-08-17T05:13:02.009Z,100679.66
2022-08-17T05:15:49.082Z,100688.25
2022-08-17T05:18:34.799Z,100689.66
2022-08-17T05:21:21.642Z,100683.38
2022-08-17T05:24:09.671Z,100692.88
2022-08-17T05:27:14.331Z,100702.97
2022-08-17T05:30:04.545Z,100710.19
2022-08-17T05:32:57.069Z,100709.50
2022-08-17T05:35:46.913Z,100712.31
2022-08-17T05:38:32.116Z,100703.41
2022-08-17T05:41:17.212Z,100703.16
2022-08-17T05:44:05.212Z,100702.63
2022-08-17T05:46:53.201Z,100691.47
2022-08-17T05:49:38.678Z,100705.81
2022-08-17T05:52:41.414Z,100715.81
2022-08-17T05:55:35.598Z,100725.56
2022-08-17T05:58:52.804Z,100724.44
2022-08-17T06:01:51.431Z,100712.91
2022-08-17T06:05:03.382Z,100729.44
2022-08-17T06:08:00.799Z,100737.91
2022-08-17T06:11:20.107Z,100738.72
2022-08-17T06:14:07.930Z,100742.84
2022-08-17T06:16:59.974Z,100735.72
2022-08-17T06:19:48.164Z,100727.63
2022-08-17T06:22:37.894Z,100719.50
2022-08-17T06:25:34.757Z,100734.34
2022-08-17T06:28:34.297Z,100742.25
2022-08-17T06:31:28.021Z,100725.50
2022-08-17T06:34:13.577Z,100726.72
2022-08-17T06:37:18.995Z,100734.19
2022-08-17T06:40:22.830Z,100734.44
2022-08-17T06:43:40.191Z,100740.81
2022-08-17T06:46:36.159Z,100730.97
2022-08-17T06:49:40.525Z,100734.38
2022-08-17T06:52:43.387Z,100739.44
2022-08-17T06:55:50.178Z,100742.84
2022-08-17T06:58:40.129Z,100742.34
2022-08-17T07:01:33.325Z,100733.09
2022-08-17T07:04:23.809Z,100752.09
2022-08-17T07:07:28.989Z,100741.03
2022-08-17T07:10:14.757Z,100774.47
2022-08-17T07:13:13.936Z,100752.94
2022-08-17T07:16:07.682Z,100748.19
2022-08-17T07:18:54.791Z,100756.22
2022-08-17T07:21:52.150Z,100761.72
2022-08-17T07:25:06.490Z,100774.41
2022-08-17T07:27:55.790Z,100779.09
2022-08-17T07:30:49.186Z,100773.47
2022-08-17T07:33:36.811Z,100786.31
2022-08-17T07:36:30.095Z,100795.28
2022-08-17T07:39:27.714Z,100793.16
2022-08-17T07:42:12.707Z,100806.63
2022-08-17T07:44:58.079Z,100805.00
2022-08-17T07:48:09.050Z,100808.19
2022-08-17T07:50:54.460Z,100808.06
2022-08-17T07:53:39.799Z,100794.94
2022-08-17T07:56:45.252Z,100812.63
2022-08-17T07:59:33.452Z,100806.84
2022-08-17T08:02:26.459Z,100795.19
2022-08-17T08:05:50.243Z,100802.69
2022-08-17T08:08:50.413Z,100799.34
2022-08-17T08:11:39.266Z,100807.31
2022-08-17T08:14:33.926Z,100794.16
2022-08-17T08:17:23.893Z,100805.75
2022-08-17T08:20:51.106Z,100806.22
2022-08-17T08:23:44.118Z,100820.13
2022-08-17T08:26:55.469Z,100812.09
2022-08-17T08:29:52.674Z,100809.63
2022-08-17T08:33:07.549Z,100821.19
2022-08-17T08:37:14.049Z,100815.69
2022-08-17T08:39:32.564Z,100812.50
2022-08-17T08:42:37.178Z,100821.44
2022-08-17T08:45:46.772Z,100810.81
2022-08-17T08:49:06.472Z,100826.56
2022-08-17T08:52:02.577Z,100825.06
2022-08-17T08:54:53.923Z,100825.28
2022-08-17T08:58:32.198Z,100832.25
2022-08-17T09:01:48.267Z,100840.41
2022-08-17T09:05:14.232Z,100841.38
2022-08-17T09:08:21.354Z,100833.56
2022-08-17T09:11:18.284Z,100825.28
2022-08-17T09:14:28.223Z,100832.56
2022-08-17T09:17:20.612Z,100840.03
2022-08-17T09:20:27.614Z,100843.00
2022-08-17T09:23:19.593Z,100846.09
2022-08-17T09:26:25.486Z,100847.19
2022-08-17T09:29:14.218Z,100863.81
2022-08-17T09:32:04.571Z,100862.63
2022-08-17T09:35:01.480Z,100856.41
2022-08-17T09:38:00.479Z,100855.88
2022-08-17T09:40:48.859Z,100859.72
2022-08-17T09:43:48.964Z,100858.25
2022-08-17T09:46:44.015Z,100849.63
2022-08-17T09:49:38.200Z,100860.34
2022-08-17T09:52:27.187Z,100854.78
2022-08-17T09:55:12.166Z,100837.91
2022-08-17T09:58:16.880Z,100853.63
2022-08-17T10:01:31.375Z,100849.78
2022-08-17T10:04:38.763Z,100851.84
2022-08-17T10:07:40.522Z,100843.88
2022-08-17T10:10:32.495Z,100847.56
2022-08-17T10:13:53.167Z,100835.84
2022-08-17T10:16:50.000Z,100839.72
2022-08-17T10:19:46.992Z,100834.06
2022-08-17T10:23:01.128Z,100846.78
2022-08-17T10:26:09.199Z,100847.63
2022-08-17T10:29:01.835Z,100852.69
2022-08-17T10:32:10.738Z,100866.59
2022-08-17T10:35:10.762Z,100866.16
2022-08-17T10:38:14.645Z,100857.75
2022-08-17T10:41:24.082Z,100853.97
2022-08-17T10:44:39.557Z,100860.16
2022-08-17T10:47:17.304Z,100860.47
2022-08-17T10:50:40.635Z,100851.44
2022-08-17T10:53:31.810Z,100845.53
2022-08-17T10:56:21.676Z,100844.34
2022-08-17T10:59:07.791Z,100839.81
2022-08-17T11:02:04.170Z,100842.06
2022-08-17T11:04:57.220Z,100842.03
2022-08-17T11:07:43.757Z,100817.91
2022-08-17T11:10:53.785Z,100823.75
2022-08-17T11:13:44.867Z,100827.06
2022-08-17T11:16:49.738Z,100824.06
2022-08-17T11:20:04.852Z,100819.41
2022-08-17T11:23:05.109Z,100800.28
2022-08-17T11:26:04.101Z,100817.84
2022-08-17T11:28:52.648Z,100831.78
2022-08-17T11:31:46.484Z,100829.69
2022-08-17T11:34:34.926Z,100819.53
2022-08-17T11:37:20.246Z,100813.69
2022-08-17T11:40:58.989Z,100813.06
2022-08-17T11:43:56.285Z,100810.25
2022-08-17T11:47:26.166Z,100810.22
2022-08-17T11:50:49.762Z,100811.03
2022-08-17T11:53:37.977Z,100815.34
2022-08-17T11:56:36.061Z,100809.38
2022-08-17T11:59:32.787Z,100818.75
2022-08-17T12:02:32.897Z,100803.34
2022-08-17T12:05:18.065Z,100813.28
2022-08-17T12:08:08.175Z,100818.09
2022-08-17T12:10:53.317Z,100805.09
2022-08-17T12:13:50.090Z,100791.47
2022-08-17T12:16:35.193Z,100807.00
2022-08-17T12:19:21.647Z,100815.84
2022-08-17T12:22:12.733Z,100827.03
2022-08-17T12:25:04.874Z,100832.38
2022-08-17T12:28:06.352Z,100831.91
2022-08-17T12:30:53.244Z,100840.88
2022-08-17T12:33:43.750Z,100830.09
2022-08-17T12:36:29.326Z,100820.63
2022-08-17T12:39:21.326Z,100818.19
2022-08-17T12:42:25.455Z,100799.50
2022-08-17T12:45:32.561Z,100826.34
2022-08-17T12:48:26.349Z,100833.34
2022-08-17T12:51:12.680Z,100832.41
2022-08-17T12:53:57.931Z,100831.16
2022-08-17T12:56:46.002Z,100823.22
2022-08-17T12:59:33.238Z,100831.59
2022-08-17T13:02:38.696Z,100830.59
2022-08-17T13:05:42.199Z,100844.13
2022-08-17T13:08:32.668Z,100843.41
2022-08-17T13:11:24.775Z,100830.69
2022-08-17T13:14:10.598Z,100836.50
2022-08-17T13:17:01.511Z,100843.31
2022-08-17T13:19:50.938Z,100843.41
2022-08-17T13:22:36.097Z,100846.91
2022-08-17T13:25:21.597Z,100858.31
2022-08-17T13:28:18.540Z,100873.41
2022-08-17T13:31:32.261Z,100874.44
2022-08-17T13:34:16.985Z,100882.00
2022-08-17T13:37:34.580Z,100871.50
2022-08-17T13:40:19.533Z,100868.38
2022-08-17T13:43:05.037Z,100866.44
2022-08-17T13:45:52.197Z,100869.47
2022-08-17T13:48:37.638Z,100859.06
2022-08-17T13:51:29.942Z,100864.56
2022-08-17T13:54:21.074Z,100893.00
2022-08-17T13:57:11.991Z,100878.69
2022-08-17T14:00:11.984Z,100876.84
2022-08-17T14:02:58.761Z,100894.34
2022-08-17T14:05:45.936Z,100917.00
2022-08-17T14:08:31.207Z,100910.28
2022-08-17T14:11:17.575Z,100909.13
2022-08-17T14:14:03.977Z,100917.56
2022-08-17T14:16:49.918Z,100951.31
2022-08-17T14:19:36.143Z,100924.69
2022-08-17T14:22:26.931Z,100895.31
2022-08-17T14:25:15.128Z,100915.88
2022-08-17T14:28:00.492Z,100915.19
2022-08-17T14:30:46.319Z,100893.91
2022-08-17T14:33:31.491Z,100908.25
2022-08-17T14:36:16.640Z,100916.19
2022-08-17T14:39:01.814Z,100915.91
2022-08-17T14:41:47.489Z,100902.44
2022-08-17T14:44:32.570Z,100901.19
2022-08-17T14:47:17.794Z,100901.63
2022-08-17T14:50:04.704Z,100885.31
2022-08-17T14:52:55.804Z,100890.94
2022-08-17T14:55:45.719Z,100890.31
2022-08-17T14:58:32.542Z,100885.66
2022-08-17T15:01:19.973Z,100879.50
2022-08-17T15:04:05.792Z,100896.13
2022-08-17T15:06:50.894Z,100889.31
2022-08-17T15:09:35.830Z,100876.34
2022-08-17T15:12:25.601Z,100887.63
2022-08-17T15:15:17.273Z,100874.84
2022-08-17T15:18:03.293Z,100871.38
2022-08-17T15:20:50.080Z,100849.94
2022-08-17T15:23:35.272Z,100863.22
2022-08-17T15:26:26.055Z,100863.06
2022-08-17T15:29:11.789Z,100865.72
2022-08-17T15:32:00.586Z,100845.75
2022-08-17T15:34:46.064Z,100860.53
2022-08-17T15:37:32.085Z,100867.34
2022-08-17T15:40:17.499Z,100874.16
2022-08-17T15:43:11.450Z,100871.09
2022-08-17T15:46:00.657Z,100886.66
2022-08-17T15:48:49.079Z,100889.22
2022-08-17T15:51:35.630Z,100898.47
2022-08-17T15:54:22.707Z,100916.69
2022-08-17T15:57:08.603Z,100914.34
2022-08-17T15:59:58.558Z,100916.50
2022-08-17T16:03:14.331Z,100925.22
2022-08-17T16:05:50.132Z,100929.97
2022-08-17T16:08:37.619Z,100926.34
2022-08-17T16:11:23.038Z,100932.50
2022-08-17T16:14:08.229Z,100926.34
2022-08-17T16:16:53.553Z,100914.22
2022-08-17T16:19:40.980Z,100930.66
2022-08-17T16:22:38.778Z,100928.84
2022-08-17T16:25:52.471Z,100929.38
2022-08-17T16:28:36.226Z,100944.38
2022-08-17T16:31:21.774Z,100930.56
2022-08-17T16:34:17.503Z,100945.50
2022-08-17T16:37:04.385Z,100950.00
2022-08-17T16:39:49.808Z,100956.97
2022-08-17T16:42:37.045Z,100942.84
2022-08-17T16:45:28.053Z,100931.25
2022-08-17T16:48:15.286Z,100952.91
2022-08-17T16:51:04.160Z,100943.81
2022-08-17T16:53:59.166Z,100931.66
2022-08-17T16:56:44.549Z,100933.50
2022-08-17T16:59:41.968Z,100921.59
2022-08-17T17:02:34.045Z,100914.94
2022-08-17T17:05:43.417Z,100910.13
2022-08-17T17:08:40.686Z,100920.44
2022-08-17T17:11:43.463Z,100903.28
2022-08-17T17:14:42.952Z,100923.56
2022-08-17T17:17:32.574Z,100929.34
2022-08-17T17:20:19.192Z,100939.63
2022-08-17T17:23:06.923Z,100942.63
2022-08-17T17:26:20.887Z,100953.25
2022-08-17T17:29:16.238Z,100948.94
2022-08-17T17:32:01.382Z,100951.66
2022-08-17T17:34:53.281Z,100953.34
2022-08-17T17:37:42.762Z,100940.97
2022-08-17T17:40:40.273Z,100967.59
2022-08-17T17:43:38.916Z,100965.94
2022-08-17T17:46:35.238Z,100967.09
2022-08-17T17:49:20.915Z,100946.25
2022-08-17T17:52:29.591Z,100970.88
2022-08-17T17:55:26.939Z,100974.50
2022-08-17T17:58:19.610Z,100978.47
2022-08-17T18:01:18.653Z,100983.44
2022-08-17T18:04:37.943Z,100979.72
2022-08-17T18:07:32.399Z,100973.22
2022-08-17T18:10:29.497Z,100951.44
2022-08-17T18:13:37.952Z,100952.59
2022-08-17T18:16:23.370Z,100970.72
2022-08-17T18:19:20.594Z,100982.31
2022-08-17T18:22:19.701Z,100979.59
2022-08-17T18:25:39.880Z,100995.09
2022-08-17T18:28:30.112Z,100986.22
2022-08-17T18:31:15.075Z,101008.97
2022-08-17T18:34:46.040Z,101016.72
2022-08-17T18:37:34.411Z,101023.31
2022-08-17T18:40:19.943Z,101022.59
2022-08-17T18:43:13.419Z,101035.72
2022-08-17T18:46:37.693Z,101035.19
2022-08-17T18:49:28.476Z,101041.94
2022-08-17T18:52:29.083Z,101036.38
2022-08-17T18:55:23.508Z,101042.31
2022-08-17T18:58:24.466Z,101044.53
2022-08-17T19:01:20.690Z,101044.00
2022-08-17T19:04:15.087Z,101033.66
2022-08-17T19:07:11.486Z,101038.13
2022-08-17T19:10:06.958Z,101027.88
2022-08-17T19:13:00.648Z,101036.84
2022-08-17T19:16:12.080Z,101033.78
2022-08-17T19:19:14.455Z,101037.06
2022-08-17T19:22:30.659Z,101051.28
2022-08-17T19:25:27.121Z,101065.94
2022-08-17T19:28:32.913Z,101065.53
2022-08-17T19:31:22.202Z,101052.91
2022-08-17T19:34:07.433Z,101060.19
2022-08-17T19:37:16.911Z,101068.44
2022-08-17T19:40:48.765Z,101071.53
2022-08-17T19:43:42.903Z,101061.38
2022-08-17T19:46:58.442Z,101072.41
2022-08-17T19:50:08.714Z,101077.56
2022-08-17T19:53:07.283Z,101089.84
2022-08-17T19:56:07.086Z,101092.22
2022-08-17T19:58:58.119Z,101096.28
2022-08-17T20:01:52.753Z,101105.50
2022-08-17T20:04:42.933Z,101101.31
2022-08-17T20:07:40.062Z,101105.78
2022-08-17T20:10:47.310Z,101094.22
2022-08-17T20:14:09.493Z,101111.06
2022-08-17T20:16:59.289Z,101101.31
2022-08-17T20:19:53.207Z,101109.56
2022-08-17T20:22:54.793Z,101102.44
2022-08-17T20:25:51.989Z,101101.06
2022-08-17T20:28:39.038Z,101109.72
2022-08-17T20:31:44.632Z,101107.75
2022-08-17T20:34:39.626Z,101101.47
2022-08-17T20:37:33.966Z,101107.75
2022-08-17T20:40:26.385Z,101106.91
2022-08-17T20:43:29.794Z,101114.44
2022-08-17T20:46:23.908Z,101118.50
2022-08-17T20:49:08.833Z,101116.44
2022-08-17T20:52:08.888Z,101108.78
2022-08-17T20:54:54.989Z,101110.00
2022-08-17T20:57:40.061Z,101103.59
2022-08-17T21:00:28.023Z,101115.44
2022-08-17T21:03:50.516Z,101116.28
2022-08-17T21:07:22.407Z,101115.03
2022-08-17T21:10:13.890Z,101111.69
2022-08-17T21:13:04.374Z,101113.66
2022-08-17T21:15:53.113Z,101110.44
2022-08-17T21:19:00.019Z,101115.03
2022-08-17T21:21:46.517Z,101121.84
2022-08-17T21:24:45.392Z,101129.53
2022-08-17T21:27:30.614Z,101124.78
2022-08-17T21:30:47.445Z,101118.91
2022-08-17T21:33:34.116Z,101133.44
2022-08-17T21:36:25.532Z,101122.16
2022-08-17T21:39:39.520Z,101130.34
2022-08-17T21:42:29.535Z,101130.34
2022-08-17T21:45:20.623Z,101119.50
2022-08-17T21:48:16.469Z,101130.63
2022-08-17T21:51:14.433Z,101141.81
2022-08-17T21:54:03.740Z,101144.03
2022-08-17T21:56:49.117Z,101143.06
2022-08-17T21:59:38.743Z,101145.16
2022-08-17T22:02:28.275Z,101143.19
2022-08-17T22:05:15.276Z,101156.03
2022-08-17T22:08:16.548Z,101159.09
2022-08-17T22:11:02.436Z,101150.03
2022-08-17T22:13:47.317Z,101153.66
2022-08-17T22:16:34.786Z,101136.22
2022-08-17T22:19:21.079Z,101151.13
2022-08-17T22:22:09.654Z,101139.41
2022-08-17T22:24:57.944Z,101150.97
2022-08-17T22:27:45.678Z,101156.28
2022-08-17T22:30:32.830Z,101153.06
2022-08-17T22:33:33.311Z,101152.25
2022-08-17T22:36:38.723Z,101153.81
2022-08-17T22:39:23.789Z,101145.44
2022-08-17T22:42:14.500Z,101146.81
2022-08-17T22:45:00.304Z,101142.06
2022-08-17T22:47:48.787Z,101139.84
2022-08-17T22:50:34.216Z,101146.97
2022-08-17T22:53:41.351Z,101156.44
2022-08-17T22:56:45.211Z,101156.31
2022-08-17T22:59:57.494Z,101164.69
2022-08-17T23:03:09.083Z,101164.41
2022-08-17T23:06:08.065Z,101154.09
2022-08-17T23:08:57.929Z,101144.31
2022-08-17T23:11:49.970Z,101136.53
2022-08-17T23:14:39.184Z,101157.41
2022-08-17T23:17:24.411Z,101154.34
2022-08-17T23:20:12.957Z,101136.53
2022-08-17T23:22:59.586Z,101144.59
2022-08-17T23:25:46.251Z,101156.31
2022-08-17T23:28:31.194Z,101156.03
2022-08-17T23:31:19.859Z,101159.38
2022-08-17T23:34:15.080Z,101148.38
2022-08-17T23:37:02.252Z,101154.09
2022-08-17T23:39:47.371Z,101159.78
2022-08-17T23:42:33.644Z,101159.53
2022-08-17T23:45:20.059Z,101162.31
2022-08-17T23:48:07.812Z,101164.66
2022-08-17T23:50:54.362Z,101168.84
2022-08-17T23:53:45.132Z,101159.09
2022-08-17T23:56:33.378Z,101173.88
2022-08-17T23:59:20.467Z,101167.19
